Time;durP1;ratioP1;P1;durP2;ratioP2;P2;SDS_P1;SDS_P2;PMS_P1;PMS_P2;Temp;Humidity;BMP_temperature;BMP_pressure;BME280_temperature;BME280_humidity;BME280_pressure;Samples;Min_cycle;Max_cycle;Signal;HPM_P1;HPM_P2
2022/04/27 00:00:15;;;;;;;;;;;;;;;;;;5054005;28;20314;-47
2022/04/27 00:02:41;;;;;;;;;;;;;;;;;;5053328;28;19932;-47
2022/04/27 00:05:07;;;;;;;;;;;;;;;;;;5053533;28;20367;-47
2022/04/27 00:07:33;;;;;;;;;;;;;;;;;;5053461;28;19916;-47
2022/04/27 00:09:58;;;;;;;;;;;;;;;;;;5053510;28;19909;-47
2022/04/27 00:12:25;;;;;;;;;;;;;;;;;;5053313;28;19913;-47
2022/04/27 00:14:51;;;;;;;;;;;17.90;86.20;;;;;;5053334;28;19908;-47
2022/04/27 00:17:17;;;;;;;;;;;18.20;89.00;;;;;;5053326;28;19917;-48
2022/04/27 00:19:42;;;;;;;;;;;;;;;;;;5053263;28;19916;-48
2022/04/27 00:22:08;;;;;;;;;;;;;;;;;;5053257;28;19931;-47
2022/04/27 00:24:34;;;;;;;;;;;;;;;;;;5053221;28;19909;-48
2022/04/27 00:27:00;;;;;;;;;;;;;;;;;;5053092;28;19912;-47
2022/04/27 00:29:26;;;;;;;;;;;;;;;;;;5053118;28;20322;-49
2022/04/27 00:31:51;;;;;;;;;;;18.20;89.60;;;;;;5052921;28;19916;-57
2022/04/27 00:34:17;;;;;;;;;;;18.20;89.80;;;;;;5053153;28;19931;-57
2022/04/27 00:36:43;;;;;;;;;;;;;;;;;;5053454;28;19920;-58
2022/04/27 00:39:09;;;;;;;;;;;;;;;;;;5053412;28;19912;-57
2022/04/27 00:41:35;;;;;;;;;;;;;;;;;;5053067;28;20009;-56
2022/04/27 00:44:00;;;;;;;;;;;;;;;;;;5053027;28;20014;-57
2022/04/27 00:46:26;;;;;;;;;;;;;;;;;;5052976;28;20363;-56
2022/04/27 00:48:52;;;;;;;;;;;;;;;;;;5053094;28;20007;-57
2022/04/27 00:51:19;;;;;;;;;;;18.20;90.00;;;;;;5052943;28;19908;-56
2022/04/27 00:53:45;;;;;;;;;;;;;;;;;;5052846;28;20387;-57
2022/04/27 00:56:10;;;;;;;;;;;;;;;;;;5052749;28;19939;-56
2022/04/27 00:58:36;;;;;;;;;;;;;;;;;;5052867;28;19955;-56
2022/04/27 01:01:02;;;;;;;;;;;;;;;;;;5052475;28;19932;-56
2022/04/27 01:03:28;;;;;;;;;;;;;;;;;;5052623;28;19963;-57
2022/04/27 01:05:54;;;;;;;;;;;;;;;;;;5053207;28;20012;-57
2022/04/27 01:08:21;;;;;;;;;;;;;;;;;;5052755;28;19913;-57
2022/04/27 01:10:47;;;;;;;;;;;;;;;;;;5053008;28;19999;-57
2022/04/27 01:13:13;;;;;;;;;;;;;;;;;;5052606;28;19940;-57
2022/04/27 01:15:39;;;;;;;;;;;;;;;;;;5052644;28;19919;-57
2022/04/27 01:18:04;;;;;;;;;;;;;;;;;;5052504;28;19916;-57
2022/04/27 01:20:30;;;;;;;;;;;;;;;;;;5052507;28;19913;-56
2022/04/27 01:22:56;;;;;;;;;;;;;;;;;;5052609;28;19915;-57
2022/04/27 01:25:22;;;;;;;;;;;18.00;90.00;;;;;;5052643;28;20402;-57
2022/04/27 01:27:47;;;;;;;;;;;17.90;89.90;;;;;;5052490;28;19909;-57
2022/04/27 01:30:12;;;;;;;;;;;17.70;86.40;;;;;;5052289;28;19913;-56
2022/04/27 01:32:38;;;;;;;;;;;;;;;;;;5052681;28;19909;-56
2022/04/27 01:35:04;;;;;;;;;;;;;;;;;;5052344;28;20019;-56
2022/04/27 01:40:14;;;;;;;;;;;;;;;;;;5058967;28;19916;-56
2022/04/27 01:42:39;;;;;;;;;;;17.90;90.10;;;;;;5052331;28;19964;-47
2022/04/27 01:45:06;;;;;;;;;;;;;;;;;;5052181;28;19974;-46
2022/04/27 01:47:32;;;;;;;;;;;;;;;;;;5052111;28;19944;-48
2022/04/27 01:49:58;;;;;;;;;;;;;;;;;;5051977;28;19952;-48
2022/04/27 01:55:09;;;;;;;;;;;;;;;;;;5052044;28;20444;-47
2022/04/27 01:57:34;;;;;;;;;;;;;;;;;;5051932;28;19931;-49
2022/04/27 02:00:00;;;;;;;;;;;;;;;;;;5052039;28;19913;-47
2022/04/27 02:02:26;;;;;;;;;;;;;;;;;;5051760;28;19928;-47
2022/04/27 02:04:52;;;;;;;;;;;;;;;;;;5051889;28;19908;-47
2022/04/27 02:07:18;;;;;;;;;;;;;;;;;;5051903;28;19909;-47
2022/04/27 02:09:44;;;;;;;;;;;;;;;;;;5051849;28;19916;-47
2022/04/27 02:12:09;;;;;;;;;;;17.90;90.10;;;;;;5053038;28;20054;-48
2022/04/27 02:14:35;;;;;;;;;;;17.90;90.20;;;;;;5055668;28;19913;-48
2022/04/27 02:17:01;;;;;;;;;;;;;;;;;;5055718;28;19917;-47
2022/04/27 02:19:27;;;;;;;;;;;;;;;;;;5055495;28;20431;-46
2022/04/27 02:21:53;;;;;;;;;;;;;;;;;;5055697;28;19916;-57
2022/04/27 02:24:19;;;;;;;;;;;;;;;;;;5055745;28;20003;-57
2022/04/27 02:26:45;;;;;;;;;;;;;;;;;;5055641;28;19936;-57
2022/04/27 02:29:11;;;;;;;;;;;;;;;;;;5055615;28;19912;-55
2022/04/27 02:31:36;;;;;;;;;;;;;;;;;;5055533;28;19915;-57
2022/04/27 02:34:02;;;;;;;;;;;;;;;;;;5055490;28;19916;-57
2022/04/27 02:36:28;;;;;;;;;;;;;;;;;;5055370;28;19920;-57
2022/04/27 02:38:54;;;;;;;;;;;17.80;90.20;;;;;;5055520;28;19963;-57
2022/04/27 02:41:20;;;;;;;;;;;18.00;89.20;;;;;;5055505;28;20379;-57
2022/04/27 02:43:45;;;;;;;;;;;17.80;90.20;;;;;;5055358;28;19909;-57
2022/04/27 02:46:11;;;;;;;;;;;17.90;87.40;;;;;;5055259;28;19932;-57
2022/04/27 02:51:48;;;;;;;;;;;;;;;;;;5055169;28;19909;-57
2022/04/27 02:54:07;;;;;;;;;;;17.90;90.10;;;;;;5055160;28;19916;-57
2022/04/27 02:56:33;;;;;;;;;;;;;;;;;;5055438;28;19912;-57
2022/04/27 02:58:59;;;;;;;;;;;;;;;;;;5055016;28;19961;-56
2022/04/27 03:01:24;;;;;;;;;;;;;;;;;;5054965;28;19916;-54
2022/04/27 03:03:50;;;;;;;;;;;;;;;;;;5054918;28;20302;-57
2022/04/27 03:06:16;;;;;;;;;;;;;;;;;;5054909;28;19909;-57
2022/04/27 03:08:42;;;;;;;;;;;17.70;86.90;;;;;;5054814;28;19915;-57
2022/04/27 03:11:07;;;;;;;;;;;;;;;;;;5054885;28;20355;-56
2022/04/27 03:13:33;;;;;;;;;;;17.90;88.60;;;;;;5054787;28;19931;-56
2022/04/27 03:15:59;;;;;;;;;;;;;;;;;;5054693;28;19909;-56
2022/04/27 03:18:25;;;;;;;;;;;;;;;;;;5054650;28;19912;-55
2022/04/27 03:20:51;;;;;;;;;;;;;;;;;;5054686;28;19999;-55
2022/04/27 03:23:16;;;;;;;;;;;;;;;;;;5054499;28;19912;-57
2022/04/27 03:25:42;;;;;;;;;;;;;;;;;;5053181;28;19909;-56
2022/04/27 03:28:08;;;;;;;;;;;;;;;;;;5054549;28;19975;-56
2022/04/27 03:30:34;;;;;;;;;;;;;;;;;;5054510;28;19909;-55
2022/04/27 03:33:00;;;;;;;;;;;17.70;90.10;;;;;;5054554;28;19913;-56
2022/04/27 03:35:26;;;;;;;;;;;;;;;;;;5054521;28;19940;-55
2022/04/27 03:37:52;;;;;;;;;;;;;;;;;;5054534;28;20256;-56
2022/04/27 03:40:21;;;;;;;;;;;17.60;90.10;;;;;;5054377;28;19909;-56
2022/04/27 03:42:47;;;;;;;;;;;17.60;90.20;;;;;;5054134;28;19956;-57
2022/04/27 03:45:13;;;;;;;;;;;17.60;90.10;;;;;;5054222;28;19909;-56
2022/04/27 03:47:39;;;;;;;;;;;;;;;;;;5054143;28;19978;-57
2022/04/27 03:50:05;;;;;;;;;;;;;;;;;;5054095;28;19940;-55
2022/04/27 03:52:31;;;;;;;;;;;;;;;;;;5054160;28;19919;-55
2022/04/27 03:55:00;;;;;;;;;;;;;;;;;;5054005;28;19916;-56
2022/04/27 03:57:26;;;;;;;;;;;;;;;;;;5053970;28;19917;-56
2022/04/27 03:59:52;;;;;;;;;;;;;;;;;;5053664;28;20216;-56
2022/04/27 04:02:17;;;;;;;;;;;17.60;90.10;;;;;;5053689;28;20012;-56
2022/04/27 04:04:43;;;;;;;;;;;;;;;;;;5053774;28;19916;-54
2022/04/27 04:07:09;;;;;;;;;;;;;;;;;;5053783;28;20283;-56
2022/04/27 04:09:35;;;;;;;;;;;;;;;;;;5053801;28;19909;-56
2022/04/27 04:12:00;;;;;;;;;;;;;;;;;;5053643;28;20314;-55
2022/04/27 04:14:26;;;;;;;;;;;;;;;;;;5053780;28;19909;-56
2022/04/27 04:16:52;;;;;;;;;;;;;;;;;;5053367;28;19935;-56
2022/04/27 04:19:18;;;;;;;;;;;17.50;90.30;;;;;;5053570;28;19908;-56
2022/04/27 04:21:43;;;;;;;;;;;17.40;90.20;;;;;;5053778;28;19916;-56
2022/04/27 04:24:09;;;;;;;;;;;17.40;87.70;;;;;;5053411;28;20454;-57
2022/04/27 04:29:19;;;;;;;;;;;;;;;;;;5053216;28;19951;-57
2022/04/27 04:31:45;;;;;;;;;;;17.70;87.00;;;;;;5053176;28;19952;-56
2022/04/27 04:34:10;;;;;;;;;;;;;;;;;;5052803;28;19928;-56
2022/04/27 04:36:36;;;;;;;;;;;;;;;;;;5052809;28;19983;-56
2022/04/27 04:39:02;;;;;;;;;;;;;;;;;;5053104;28;19924;-56
2022/04/27 04:41:28;;;;;;;;;;;17.50;90.20;;;;;;5053020;28;20003;-56
2022/04/27 04:43:53;;;;;;;;;;;;;;;;;;5053293;28;19913;-56
2022/04/27 04:46:19;;;;;;;;;;;;;;;;;;5053022;28;19909;-56
2022/04/27 04:48:45;;;;;;;;;;;17.60;89.60;;;;;;5052914;28;20375;-57
2022/04/27 04:51:11;;;;;;;;;;;;;;;;;;5052880;28;20003;-56
2022/04/27 04:53:36;;;;;;;;;;;;;;;;;;5052732;28;19916;-57
2022/04/27 04:56:02;;;;;;;;;;;;;;;;;;5052490;28;19916;-57
2022/04/27 04:58:28;;;;;;;;;;;;;;;;;;5052735;28;20250;-56
2022/04/27 05:00:54;;;;;;;;;;;17.50;90.20;;;;;;5052512;28;19915;-58
2022/04/27 05:03:19;;;;;;;;;;;;;;;;;;5052380;28;19931;-57
2022/04/27 05:05:45;;;;;;;;;;;;;;;;;;5052497;28;20079;-57
2022/04/27 05:08:11;;;;;;;;;;;17.50;90.20;;;;;;5050947;28;19909;-57
2022/04/27 05:10:37;;;;;;;;;;;;;;;;;;5052309;28;19909;-57
2022/04/27 05:13:03;;;;;;;;;;;;;;;;;;5052346;28;20290;-56
2022/04/27 05:15:28;;;;;;;;;;;;;;;;;;5052247;28;19909;-56
2022/04/27 05:17:54;;;;;;;;;;;;;;;;;;5052100;28;19917;-57
2022/04/27 05:20:20;;;;;;;;;;;;;;;;;;5052385;28;19999;-57
2022/04/27 05:22:46;;;;;;;;;;;;;;;;;;5052049;28;19932;-56
2022/04/27 05:25:12;;;;;;;;;;;17.40;90.20;;;;;;5052253;28;19909;-56
2022/04/27 05:27:38;;;;;;;;;;;;;;;;;;5052069;28;19909;-56
2022/04/27 05:32:48;;;;;;;;;;;;;;;;;;5052035;28;19916;-56
2022/04/27 05:35:14;;;;;;;;;;;;;;;;;;5051855;28;20303;-56
2022/04/27 05:37:40;;;;;;;;;;;;;;;;;;5052020;28;19921;-57
2022/04/27 05:40:06;;;;;;;;;;;;;;;;;;5052013;28;19974;-56
2022/04/27 05:42:32;;;;;;;;;;;;;;;;;;5051883;28;19939;-55
2022/04/27 05:44:58;;;;;;;;;;;;;;;;;;5052228;28;19910;-55
2022/04/27 05:47:25;;;;;;;;;;;;;;;;;;5053446;28;19987;-55
2022/04/27 05:49:51;;;;;;;;;;;;;;;;;;5056264;28;19920;-55
2022/04/27 05:52:16;;;;;;;;;;;;;;;;;;5055800;28;19908;-55
2022/04/27 05:54:42;;;;;;;;;;;;;;;;;;5055915;28;19912;-55
2022/04/27 05:57:08;;;;;;;;;;;;;;;;;;5055741;28;19939;-56
2022/04/27 05:59:34;;;;;;;;;;;17.40;90.10;;;;;;5055541;28;20011;-55
2022/04/27 06:02:00;;;;;;;;;;;;;;;;;;5055407;28;19925;-56
2022/04/27 06:04:26;;;;;;;;;;;;;;;;;;5055788;28;19915;-56
2022/04/27 06:06:52;;;;;;;;;;;;;;;;;;5055275;28;20004;-56
2022/04/27 06:09:18;;;;;;;;;;;;;;;;;;5055133;28;20359;-55
2022/04/27 06:11:44;;;;;;;;;;;;;;;;;;5055070;28;19925;-55
2022/04/27 06:14:10;;;;;;;;;;;;;;;;;;5055252;28;20001;-55
2022/04/27 06:16:35;;;;;;;;;;;17.40;89.90;;;;;;5055571;28;20268;-55
2022/04/27 06:19:01;;;;;;;;;;;;;;;;;;5055252;28;19915;-55
2022/04/27 06:21:31;;;;;;;;;;;17.70;90.10;;;;;;5055469;28;19982;-55
2022/04/27 06:23:58;;;;;;;;;;;;;;;;;;5055387;28;19990;-55
2022/04/27 06:26:24;;;;;;;;;;;;;;;;;;5055150;28;20272;-54
2022/04/27 06:28:49;;;;;;;;;;;17.70;90.20;;;;;;5055018;28;19909;-54
2022/04/27 06:31:15;;;;;;;;;;;;;;;;;;5055164;28;20012;-56
2022/04/27 06:33:41;;;;;;;;;;;;;;;;;;5054685;28;19909;-54
2022/04/27 06:36:07;;;;;;;;;;;;;;;;;;5054847;28;19998;-54
2022/04/27 06:38:33;;;;;;;;;;;;;;;;;;5054820;28;19920;-55
2022/04/27 06:40:59;;;;;;;;;;;;;;;;;;5055029;28;20383;-54
2022/04/27 06:43:25;;;;;;;;;;;;;;;;;;5054938;28;19909;-52
2022/04/27 06:45:50;;;;;;;;;;;;;;;;;;5054837;28;20298;-54
2022/04/27 06:48:16;;;;;;;;;;;;;;;;;;5054421;28;19909;-55
2022/04/27 06:50:42;;;;;;;;;;;;;;;;;;5054463;28;19952;-54
2022/04/27 06:53:09;;;;;;;;;;;;;;;;;;5054428;28;20008;-50
2022/04/27 06:55:35;;;;;;;;;;;;;;;;;;5054552;28;19976;-53
2022/04/27 06:58:00;;;;;;;;;;;;;;;;;;5053920;28;20402;-51
2022/04/27 07:00:26;;;;;;;;;;;;;;;;;;5053945;28;19945;-51
2022/04/27 07:02:52;;;;;;;;;;;;;;;;;;5053544;28;20441;-51
2022/04/27 07:05:19;;;;;;;;;;;18.00;89.40;;;;;;5053848;28;19909;-53
2022/04/27 07:07:45;;;;;;;;;;;;;;;;;;5053777;28;19919;-52
2022/04/27 07:10:12;;;;;;;;;;;;;;;;;;5054046;28;19908;-52
2022/04/27 07:12:37;;;;;;;;;;;;;;;;;;5054059;28;20003;-53
2022/04/27 07:15:03;;;;;;;;;;;;;;;;;;5054316;28;19917;-54
2022/04/27 07:17:30;;;;;;;;;;;;;;;;;;5053665;28;19917;-50
2022/04/27 07:19:56;;;;;;;;;;;;;;;;;;5053903;28;19916;-50
2022/04/27 07:22:22;;;;;;;;;;;;;;;;;;5053310;28;19925;-52
2022/04/27 07:24:49;;;;;;;;;;;;;;;;;;5053081;28;20379;-55
2022/04/27 07:27:15;;;;;;;;;;;;;;;;;;5053328;28;20340;-53
2022/04/27 07:29:41;;;;;;;;;;;;;;;;;;5052550;28;19909;-54
2022/04/27 07:32:07;;;;;;;;;;;;;;;;;;5052944;28;19909;-53
2022/04/27 07:34:33;;;;;;;;;;;;;;;;;;5052567;28;20375;-50
2022/04/27 07:37:01;;;;;;;;;;;;;;;;;;5052328;28;19917;-53
2022/04/27 07:39:27;;;;;;;;;;;;;;;;;;5050694;28;20405;-53
2022/04/27 07:41:52;;;;;;;;;;;;;;;;;;5052459;28;19909;-54
2022/04/27 07:44:18;;;;;;;;;;;;;;;;;;5052469;28;20440;-54
2022/04/27 07:46:47;;;;;;;;;;;;;;;;;;5052047;28;19931;-54
2022/04/27 07:49:13;;;;;;;;;;;;;;;;;;5052030;28;19909;-50
2022/04/27 07:51:39;;;;;;;;;;;;;;;;;;5052442;28;20007;-52
2022/04/27 07:54:05;;;;;;;;;;;;;;;;;;5052383;28;20000;-54
2022/04/27 07:56:30;;;;;;;;;;;;;;;;;;5052147;28;19924;-51
2022/04/27 07:58:56;;;;;;;;;;;;;;;;;;5052100;28;20363;-54
2022/04/27 08:01:22;;;;;;;;;;;;;;;;;;5051794;28;19915;-51
2022/04/27 08:03:48;;;;;;;;;;;;;;;;;;5051781;28;20015;-52
2022/04/27 08:06:14;;;;;;;;;;;;;;;;;;5052333;28;19931;-52
2022/04/27 08:08:40;;;;;;;;;;;;;;;;;;5051831;28;19916;-53
2022/04/27 08:11:07;;;;;;;;;;;;;;;;;;5051013;28;19916;-53
2022/04/27 08:13:33;;;;;;;;;;;;;;;;;;5052054;28;19916;-55
2022/04/27 08:15:59;;;;;;;;;;;;;;;;;;5051955;28;20223;-55
2022/04/27 08:18:25;;;;;;;;;;;;;;;;;;5052156;28;20375;-54
2022/04/27 08:23:40;;;;;;;;;;;;;;;;;;5052503;28;20006;-56
2022/04/27 08:26:05;;;;;;;;;;;;;;;;;;5052235;28;19909;-56
2022/04/27 08:28:31;;;;;;;;;;;;;;;;;;5052075;28;19924;-54
2022/04/27 08:30:58;;;;;;;;;;;;;;;;;;5052137;28;19931;-54
2022/04/27 08:33:24;;;;;;;;;;;;;;;;;;5052493;28;19985;-55
2022/04/27 08:35:50;;;;;;;;;;;;;;;;;;5050318;28;19909;-54
2022/04/27 08:38:16;;;;;;;;;;;;;;;;;;5051961;28;19917;-54
2022/04/27 08:40:42;;;;;;;;;;;;;;;;;;5051912;28;19971;-54
2022/04/27 08:43:09;;;;;;;;;;;;;;;;;;5051754;28;19909;-55
2022/04/27 08:45:35;;;;;;;;;;;;;;;;;;5051542;28;19908;-54
2022/04/27 08:48:01;;;;;;;;;;;;;;;;;;5051847;28;19915;-54
2022/04/27 08:50:27;;;;;;;;;;;;;;;;;;5051411;28;19909;-54
2022/04/27 08:52:53;;;;;;;;;;;;;;;;;;5051107;28;19955;-54
2022/04/27 08:55:20;;;;;;;;;;;;;;;;;;5051560;28;20012;-56
2022/04/27 08:57:46;;;;;;;;;;;;;;;;;;5051598;28;19917;-51
2022/04/27 09:00:11;;;;;;;;;;;;;;;;;;5051299;28;19909;-55
2022/04/27 09:02:37;;;;;;;;;;;;;;;;;;5049461;28;19972;-51
2022/04/27 09:05:03;;;;;;;;;;;;;;;;;;5050948;28;19916;-51
2022/04/27 09:07:29;;;;;;;;;;;;;;;;;;5050802;28;19909;-52
2022/04/27 09:09:55;;;;;;;;;;;;;;;;;;5049414;28;19924;-52
2022/04/27 09:12:21;;;;;;;;;;;;;;;;;;5050824;28;20353;-52
2022/04/27 09:14:47;;;;;;;;;;;;;;;;;;5050557;28;19909;-51
2022/04/27 09:22:41;;;;;;;;;;;;;;;;;;5050700;28;19927;-53
2022/04/27 09:25:07;;;;;;;;;;;;;;;;;;5051112;28;19909;-51
2022/04/27 09:27:33;;;;;;;;;;;;;;;;;;5050833;28;19909;-50
2022/04/27 09:29:59;;;;;;;;;;;;;;;;;;5050593;28;19963;-54
2022/04/27 09:32:25;;;;;;;;;;;;;;;;;;5050249;28;19908;-52
2022/04/27 09:34:51;;;;;;;;;;;;;;;;;;5050358;28;20008;-54
2022/04/27 09:37:17;;;;;;;;;;;;;;;;;;5049992;28;19966;-53
2022/04/27 09:39:43;;;;;;;;;;;;;;;;;;5050525;28;19916;-54
2022/04/27 09:42:10;;;;;;;;;;;;;;;;;;5049879;28;20003;-52
2022/04/27 09:44:36;;;;;;;;;;;;;;;;;;5049918;28;19962;-51
2022/04/27 09:47:05;;;;;;;;;;;;;;;;;;5050039;28;19909;-50
2022/04/27 09:49:35;;;;;;;;;;;;;;;;;;5050127;28;19936;-50
2022/04/27 09:52:01;;;;;;;;;;;;;;;;;;5050047;28;20018;-51
2022/04/27 09:54:30;;;;;;;;;;;;;;;;;;5049845;28;20382;-50
2022/04/27 09:56:56;;;;;;;;;;;;;;;;;;5049753;28;19916;-52
2022/04/27 09:59:26;;;;;;;;;;;;;;;;;;5049874;28;19909;-49
2022/04/27 10:01:53;;;;;;;;;;;;;;;;;;5049565;28;19928;-49
2022/04/27 10:04:19;;;;;;;;;;;;;;;;;;5050101;28;19996;-48
2022/04/27 10:06:44;;;;;;;;;;;;;;;;;;5050054;28;20454;-48
2022/04/27 10:09:10;;;;;;;;;;;;;;;;;;5050015;28;20194;-48
2022/04/27 10:11:36;;;;;;;;;;;20.20;83.20;;;;;;5049585;28;20335;-49
2022/04/27 10:14:02;;;;;;;;;;;;;;;;;;5050042;28;19924;-49
2022/04/27 10:16:28;;;;;;;;;;;;;;;;;;5049972;28;19916;-48
2022/04/27 10:18:54;;;;;;;;;;;;;;;;;;5050146;28;19909;-49
2022/04/27 10:21:20;;;;;;;;;;;;;;;;;;5050448;28;19972;-50
2022/04/27 10:23:46;;;;;;;;;;;;;;;;;;5049912;28;19909;-48
2022/04/27 10:26:12;;;;;;;;;;;;;;;;;;5049733;28;19959;-47
2022/04/27 10:28:38;;;;;;;;;;;;;;;;;;5048712;28;20244;-48
2022/04/27 10:31:08;;;;;;;;;;;20.10;83.90;;;;;;5050075;28;20263;-49
2022/04/27 10:33:34;;;;;;;;;;;;;;;;;;5052024;28;19909;-49
2022/04/27 10:36:00;;;;;;;;;;;;;;;;;;5053562;28;20273;-49
2022/04/27 10:38:26;;;;;;;;;;;;;;;;;;5053239;28;19916;-48
2022/04/27 10:40:51;;;;;;;;;;;;;;;;;;5053460;28;20013;-49
2022/04/27 10:43:17;;;;;;;;;;;;;;;;;;5053511;28;19913;-49
2022/04/27 10:45:43;;;;;;;;;;;;;;;;;;5053176;28;19940;-48
2022/04/27 10:48:09;;;;;;;;;;;;;;;;;;5053255;28;20081;-48
2022/04/27 10:50:35;;;;;;;;;;;;;;;;;;5053083;28;19909;-48
2022/04/27 10:53:03;;;;;;;;;;;;;;;;;;5053283;28;19967;-49
2022/04/27 10:55:28;;;;;;;;;;;;;;;;;;5051604;28;19939;-48
2022/04/27 10:57:54;;;;;;;;;;;;;;;;;;5051749;28;19917;-49
2022/04/27 11:00:20;;;;;;;;;;;;;;;;;;5052817;28;19912;-49
2022/04/27 11:02:46;;;;;;;;;;;;;;;;;;5051900;28;19921;-49
2022/04/27 11:05:12;;;;;;;;;;;;;;;;;;5052486;28;20390;-48
2022/04/27 11:07:38;;;;;;;;;;;;;;;;;;5052895;28;19908;-49
2022/04/27 11:10:04;;;;;;;;;;;;;;;;;;5052265;28;20000;-48
2022/04/27 11:12:30;;;;;;;;;;;;;;;;;;5052760;28;20374;-49
2022/04/27 11:14:56;;;;;;;;;;;;;;;;;;5052691;28;19940;-48
2022/04/27 11:17:21;;;;;;;;;;;;;;;;;;5052694;28;19964;-48
2022/04/27 11:19:47;;;;;;;;;;;;;;;;;;5052682;28;20421;-49
2022/04/27 11:22:14;;;;;;;;;;;;;;;;;;5052146;28;19915;-49
2022/04/27 11:24:40;;;;;;;;;;;;;;;;;;5051736;28;20004;-48
2022/04/27 11:27:06;;;;;;;;;;;;;;;;;;5052120;28;19915;-49
2022/04/27 11:29:32;;;;;;;;;;;;;;;;;;5052116;28;20103;-49
2022/04/27 11:31:58;;;;;;;;;;;;;;;;;;5052142;28;19947;-49
2022/04/27 11:34:24;;;;;;;;;;;;;;;;;;5051965;28;19967;-47
2022/04/27 11:36:50;;;;;;;;;;;;;;;;;;5051855;28;19914;-48
2022/04/27 11:39:16;;;;;;;;;;;;;;;;;;5052274;28;19941;-48
2022/04/27 11:41:42;;;;;;;;;;;;;;;;;;5052541;28;20239;-49
2022/04/27 11:44:09;;;;;;;;;;;;;;;;;;5051182;28;20339;-50
2022/04/27 11:46:35;;;;;;;;;;;;;;;;;;5051622;28;19949;-49
2022/04/27 11:49:01;;;;;;;;;;;;;;;;;;5051647;28;19931;-50
2022/04/27 11:51:26;;;;;;;;;;;;;;;;;;5051646;28;20008;-48
2022/04/27 11:53:54;;;;;;;;;;;;;;;;;;5051462;28;20458;-49
2022/04/27 11:56:19;;;;;;;;;;;;;;;;;;5051574;28;19916;-49
2022/04/27 11:58:45;;;;;;;;;;;;;;;;;;5051709;28;19925;-48
2022/04/27 12:01:11;;;;;;;;;;;;;;;;;;5051405;28;20035;-49
2022/04/27 12:03:37;;;;;;;;;;;;;;;;;;5051613;28;20019;-48
2022/04/27 12:06:03;;;;;;;;;;;;;;;;;;5051483;28;19912;-50
2022/04/27 12:08:30;;;;;;;;;;;;;;;;;;5050083;28;19916;-48
2022/04/27 12:10:56;;;;;;;;;;;;;;;;;;5051367;28;19915;-48
2022/04/27 12:13:22;;;;;;;;;;;;;;;;;;5051392;28;19991;-48
2022/04/27 12:15:48;;;;;;;;;;;;;;;;;;5049784;28;20007;-49
2022/04/27 12:18:14;;;;;;;;;;;;;;;;;;5051058;28;19916;-48
2022/04/27 12:20:40;;;;;;;;;;;;;;;;;;5051562;28;19920;-48
2022/04/27 12:23:06;;;;;;;;;;;;;;;;;;5051339;28;19975;-48
2022/04/27 12:25:32;;;;;;;;;;;;;;;;;;5051361;28;19909;-49
2022/04/27 12:28:00;;;;;;;;;;;;;;;;;;5051330;28;19909;-48
2022/04/27 12:30:25;;;;;;;;;;;;;;;;;;5050786;28;19909;-49
2022/04/27 12:32:51;;;;;;;;;;;;;;;;;;5051488;28;19909;-47
2022/04/27 12:38:02;;;;;;;;;;;;;;;;;;5050837;28;20338;-49
2022/04/27 12:40:29;;;;;;;;;;;;;;;;;;5050963;28;19912;-49
2022/04/27 12:42:54;;;;;;;;;;;;;;;;;;5050802;28;20105;-49
2022/04/27 12:45:20;;;;;;;;;;;;;;;;;;5049893;28;20019;-48
2022/04/27 12:47:47;;;;;;;;;;;;;;;;;;5050442;28;20555;-49
2022/04/27 12:50:13;;;;;;;;;;;;;;;;;;5050217;28;19915;-48
2022/04/27 12:52:40;;;;;;;;;;;;;;;;;;5050620;28;19909;-49
2022/04/27 12:55:07;;;;;;;;;;;;;;;;;;5050489;28;19909;-49
2022/04/27 12:57:33;;;;;;;;;;;;;;;;;;5050379;28;19916;-49
2022/04/27 12:59:59;;;;;;;;;;;;;;;;;;5050655;28;20289;-49
2022/04/27 13:02:24;;;;;;;;;;;;;;;;;;5050784;28;20106;-48
2022/04/27 13:04:51;;;;;;;;;;;;;;;;;;5050553;28;20525;-55
2022/04/27 13:07:17;;;;;;;;;;;;;;;;;;5050827;28;19982;-54
2022/04/27 13:12:28;;;;;;;;;;;;;;;;;;5050493;28;19916;-54
2022/04/27 13:14:54;;;;;;;;;;;;;;;;;;5050458;28;20282;-54
2022/04/27 13:17:19;;;;;;;;;;;;;;;;;;5050266;28;19913;-54
2022/04/27 13:19:45;;;;;;;;;;;;;;;;;;5050544;28;19915;-54
2022/04/27 13:22:11;;;;;;;;;;;;;;;;;;5050327;28;19909;-54
2022/04/27 13:24:37;;;;;;;;;;;;;;;;;;5050686;28;19955;-54
2022/04/27 13:27:03;;;;;;;;;;;;;;;;;;5050337;28;19909;-54
2022/04/27 13:29:29;;;;;;;;;;;;;;;;;;5050326;28;19909;-54
2022/04/27 13:31:55;;;;;;;;;;;;;;;;;;5050003;28;19924;-54
2022/04/27 13:34:21;;;;;;;;;;;;;;;;;;5048842;28;19920;-53
2022/04/27 13:36:47;;;;;;;;;;;;;;;;;;5050328;28;19943;-54
2022/04/27 13:39:13;;;;;;;;;;;;;;;;;;5050098;28;20012;-54
2022/04/27 13:41:39;;;;;;;;;;;;;;;;;;5050167;28;19915;-53
2022/04/27 13:44:04;;;;;;;;;;;;;;;;;;5050023;28;19916;-54
2022/04/27 13:46:30;;;;;;;;;;;;;;;;;;5049897;28;20394;-52
2022/04/27 13:48:56;;;;;;;;;;;;;;;;;;5050356;28;19990;-53
2022/04/27 13:51:22;;;;;;;;;;;;;;;;;;5050093;28;19994;-53
2022/04/27 13:53:48;;;;;;;;;;;;;;;;;;5050284;28;19909;-53
2022/04/27 13:56:14;;;;;;;;;;;;;;;;;;5049079;28;19971;-53
2022/04/27 13:58:39;;;;;;;;;;;19.60;86.00;;;;;;5049953;28;20002;-52
2022/04/27 14:01:05;;;;;;;;;;;;;;;;;;5050403;28;19916;-54
2022/04/27 14:03:31;;;;;;;;;;;;;;;;;;5050158;28;20485;-53
2022/04/27 14:05:57;;;;;;;;;;;;;;;;;;5050297;28;19932;-53
2022/04/27 14:08:23;;;;;;;;;;;;;;;;;;5052482;28;19916;-53
2022/04/27 14:10:49;;;;;;;;;;;;;;;;;;5055028;28;19909;-55
2022/04/27 14:13:16;;;;;;;;;;;;;;;;;;5054695;28;19912;-54
2022/04/27 14:18:09;;;;;;;;;;;;;;;;;;5054773;28;20428;-54
2022/04/27 14:18:28;;;;;;;;;;;;;;;;;;5054296;28;19983;-54
2022/04/27 14:20:54;;;;;;;;;;;;;;;;;;5054695;28;19989;-53
2022/04/27 14:23:20;;;;;;;;;;;19.90;85.90;;;;;;5054446;28;19958;-54
2022/04/27 14:25:47;;;;;;;;;;;;;;;;;;5054498;28;19920;-54
2022/04/27 14:28:13;;;;;;;;;;;;;;;;;;5054365;28;19916;-54
2022/04/27 14:30:39;;;;;;;;;;;;;;;;;;5054398;28;19909;-54
2022/04/27 14:33:06;;;;;;;;;;;;;;;;;;5054416;28;20323;-54
2022/04/27 14:35:32;;;;;;;;;;;;;;;;;;5054626;28;19909;-55
2022/04/27 14:37:59;;;;;;;;;;;;;;;;;;5054325;28;20390;-56
2022/04/27 14:40:24;;;;;;;;;;;;;;;;;;5054573;28;20360;-54
2022/04/27 14:42:52;;;;;;;;;;;;;;;;;;5054648;28;19974;-56
2022/04/27 14:45:18;;;;;;;;;;;;;;;;;;5054700;28;20290;-57
2022/04/27 14:47:44;;;;;;;;;;;;;;;;;;5054722;28;19955;-57
2022/04/27 14:50:10;;;;;;;;;;;;;;;;;;5055011;28;20015;-58
2022/04/27 14:52:36;;;;;;;;;;;19.50;81.50;;;;;;5054896;28;19913;-58
2022/04/27 14:55:02;;;;;;;;;;;;;;;;;;5054786;28;19933;-58
2022/04/27 14:57:28;;;;;;;;;;;;;;;;;;5054666;28;20367;-58
2022/04/27 14:59:54;;;;;;;;;;;;;;;;;;5053231;28;19912;-57
2022/04/27 15:02:22;;;;;;;;;;;;;;;;;;5054581;28;19927;-57
2022/04/27 15:04:47;;;;;;;;;;;19.50;85.50;;;;;;5054657;28;19916;-58
2022/04/27 15:07:13;;;;;;;;;;;;;;;;;;5054677;28;19909;-56
2022/04/27 15:09:39;;;;;;;;;;;;;;;;;;5054494;28;19932;-57
2022/04/27 15:12:05;;;;;;;;;;;;;;;;;;5054563;28;19955;-57
2022/04/27 15:14:30;;;;;;;;;;;19.80;85.80;;;;;;5054558;28;20102;-57
2022/04/27 15:16:56;;;;;;;;;;;19.80;85.60;;;;;;5054412;28;19921;-57
2022/04/27 15:19:22;;;;;;;;;;;;;;;;;;5054334;28;20326;-56
2022/04/27 15:24:32;;;;;;;;;;;;;;;;;;5054408;28;20322;-57
2022/04/27 15:26:59;;;;;;;;;;;19.80;84.30;;;;;;5054676;28;19983;-57
2022/04/27 15:29:25;;;;;;;;;;;;;;;;;;5054704;28;19997;-55
2022/04/27 15:31:51;;;;;;;;;;;;;;;;;;5054308;28;19966;-52
2022/04/27 15:34:16;;;;;;;;;;;19.90;84.60;;;;;;5054246;28;19988;-54
2022/04/27 15:36:42;;;;;;;;;;;;;;;;;;5054392;28;19968;-54
2022/04/27 15:39:08;;;;;;;;;;;19.90;84.20;;;;;;5054240;28;19949;-55
2022/04/27 15:41:34;;;;;;;;;;;;;;;;;;5054244;28;19974;-55
2022/04/27 15:43:59;;;;;;;;;;;19.60;83.10;;;;;;5054065;28;19920;-57
2022/04/27 15:46:25;;;;;;;;;;;;;;;;;;5054205;28;19963;-58
2022/04/27 15:48:51;;;;;;;;;;;;;;;;;;5054185;28;19913;-57
2022/04/27 15:51:17;;;;;;;;;;;;;;;;;;5054267;28;19909;-57
2022/04/27 15:53:42;;;;;;;;;;;;;;;;;;5054029;28;20401;-56
2022/04/27 15:56:08;;;;;;;;;;;20.00;84.20;;;;;;5053914;28;19909;-57
2022/04/27 15:58:34;;;;;;;;;;;19.60;84.00;;;;;;5054037;28;19924;-57
2022/04/27 16:01:01;;;;;;;;;;;19.90;83.70;;;;;;5053874;28;19909;-57
2022/04/27 16:03:27;;;;;;;;;;;;;;;;;;5053662;28;20007;-57
2022/04/27 16:05:53;;;;;;;;;;;;;;;;;;5053876;28;20006;-57
2022/04/27 16:08:19;;;;;;;;;;;;;;;;;;5053958;28;19908;-57
2022/04/27 16:10:45;;;;;;;;;;;;;;;;;;5053819;28;19909;-57
2022/04/27 16:13:11;;;;;;;;;;;;;;;;;;5053701;28;20290;-57
2022/04/27 16:15:37;;;;;;;;;;;;;;;;;;5053619;28;20154;-57
2022/04/27 16:18:03;;;;;;;;;;;;;;;;;;5053456;28;19917;-57
2022/04/27 16:20:29;;;;;;;;;;;;;;;;;;5053549;28;20334;-56
2022/04/27 16:23:10;;;;;;;;;;;;;;;;;;5053303;28;19909;-57
2022/04/27 16:25:36;;;;;;;;;;;20.00;83.40;;;;;;5053847;28;19909;-56
2022/04/27 16:28:02;;;;;;;;;;;20.10;83.00;;;;;;5052104;28;19909;-52
2022/04/27 16:30:28;;;;;;;;;;;;;;;;;;5052630;28;19916;-51
2022/04/27 16:32:54;;;;;;;;;;;;;;;;;;5053504;28;19932;-50
2022/04/27 16:35:20;;;;;;;;;;;20.40;82.00;;;;;;5053534;28;19908;-51
2022/04/27 16:37:45;;;;;;;;;;;20.10;83.30;;;;;;5053130;28;20324;-51
2022/04/27 16:40:11;;;;;;;;;;;;;;;;;;5053169;28;20291;-49
2022/04/27 16:42:37;;;;;;;;;;;;;;;;;;5053379;28;20394;-50